createdAt,value
2019-03-23T00:01:22.344Z,54.10
2019-03-23T00:03:52.984Z,54.38
2019-03-23T00:06:30.720Z,54.38
2019-03-23T00:08:55.883Z,54.73
2019-03-23T00:11:26.349Z,54.73
2019-03-23T00:13:57.124Z,55.08
2019-03-23T00:16:27.496Z,55.04
2019-03-23T00:18:57.900Z,55.28
2019-03-23T00:21:28.170Z,55.28
2019-03-23T00:23:58.395Z,55.61
2019-03-23T00:26:28.536Z,55.73
2019-03-23T00:29:00.357Z,55.45
2019-03-23T00:31:30.518Z,55.81
2019-03-23T00:34:00.847Z,57.13
2019-03-23T00:36:41.074Z,57.13
2019-03-23T00:39:04.765Z,56.47
2019-03-23T00:41:35.223Z,56.99
2019-03-23T00:44:07.417Z,56.99
2019-03-23T00:46:37.204Z,57.13
2019-03-23T00:49:07.283Z,57.40
2019-03-23T00:51:37.367Z,57.81
2019-03-23T00:54:07.713Z,58.16
2019-03-23T00:56:37.807Z,58.16
2019-03-23T00:59:08.183Z,58.42
2019-03-23T01:01:38.550Z,58.42
2019-03-23T01:04:09.165Z,58.78
2019-03-23T01:06:39.594Z,58.91
2019-03-23T01:09:10.294Z,58.88
2019-03-23T01:11:40.651Z,58.88
2019-03-23T01:14:11.245Z,58.76
2019-03-23T01:16:41.644Z,60.14
2019-03-23T01:19:11.829Z,59.08
2019-03-23T01:21:42.117Z,59.31
2019-03-23T01:24:12.303Z,59.31
2019-03-23T01:26:42.522Z,59.41
2019-03-23T01:29:13.025Z,59.44
2019-03-23T01:31:43.401Z,59.32
2019-03-23T01:34:13.754Z,59.32
2019-03-23T01:36:43.879Z,60.04
2019-03-23T01:39:14.140Z,60.05
2019-03-23T01:41:45.042Z,60.15
2019-03-23T01:44:15.381Z,60.15
2019-03-23T01:46:46.548Z,60.34
2019-03-23T01:49:17.179Z,60.26
2019-03-23T01:51:47.582Z,59.83
2019-03-23T01:54:17.834Z,59.83
2019-03-23T01:56:48.060Z,60.68
2019-03-23T01:59:18.766Z,60.96
2019-03-23T02:01:49.018Z,61.07
2019-03-23T02:04:19.205Z,61.07
2019-03-23T02:06:49.885Z,61.36
2019-03-23T02:09:19.963Z,61.47
2019-03-23T02:11:50.289Z,61.94
2019-03-23T02:14:20.403Z,61.55
2019-03-23T02:16:50.675Z,61.55
2019-03-23T02:19:21.150Z,62.29
2019-03-23T02:21:51.609Z,62.29
2019-03-23T02:24:22.011Z,63.72
2019-03-23T02:26:52.497Z,63.74
2019-03-23T02:29:22.612Z,63.46
2019-03-23T02:31:52.750Z,63.28
2019-03-23T02:34:23.038Z,63.28
2019-03-23T02:36:53.293Z,64.05
2019-03-23T02:39:23.706Z,63.72
2019-03-23T02:41:54.117Z,64.22
2019-03-23T02:44:24.663Z,65.19
2019-03-23T02:46:54.810Z,65.28
2019-03-23T02:49:25.572Z,65.67
2019-03-23T02:51:55.906Z,65.67
2019-03-23T02:54:26.111Z,65.92
2019-03-23T02:56:56.338Z,66.70
2019-03-23T02:59:26.766Z,66.67
2019-03-23T03:01:57.467Z,66.95
2019-03-23T03:04:27.587Z,66.79
2019-03-23T03:06:57.858Z,67.27
2019-03-23T03:09:28.328Z,68.08
2019-03-23T03:11:58.580Z,68.08
2019-03-23T03:14:29.042Z,68.34
2019-03-23T03:16:59.592Z,68.89
2019-03-23T03:19:29.949Z,69.36
2019-03-23T03:22:00.239Z,70.78
2019-03-23T03:24:30.632Z,70.78
2019-03-23T03:27:01.298Z,71.83
2019-03-23T03:29:32.407Z,72.45
2019-03-23T03:32:03.000Z,72.92
2019-03-23T03:34:33.381Z,72.92
2019-03-23T03:37:04.078Z,73.52
2019-03-23T03:39:34.317Z,74.76
2019-03-23T03:42:04.573Z,76.21
2019-03-23T03:44:34.882Z,76.48
2019-03-23T03:47:05.243Z,76.48
2019-03-23T03:49:35.537Z,77.29
2019-03-23T03:52:05.984Z,77.29
2019-03-23T03:54:36.824Z,77.26
2019-03-23T03:57:07.033Z,77.86
2019-03-23T03:59:37.389Z,78.49
2019-03-23T04:02:07.718Z,78.55
2019-03-23T04:04:38.103Z,78.35
2019-03-23T04:07:09.009Z,78.17
2019-03-23T04:09:40.507Z,78.12
2019-03-23T04:12:10.802Z,77.36
2019-03-23T04:14:41.179Z,77.36
2019-03-23T04:17:11.505Z,79.70
2019-03-23T04:19:42.030Z,80.17
2019-03-23T04:22:12.423Z,80.17
2019-03-23T04:24:42.767Z,80.17
2019-03-23T04:27:13.646Z,80.05
2019-03-23T04:29:44.418Z,80.93
2019-03-23T04:32:14.698Z,81.62
2019-03-23T04:34:45.360Z,84.98
2019-03-23T04:37:15.786Z,84.98
2019-03-23T04:39:46.287Z,87.81
2019-03-23T04:42:16.854Z,88.21
2019-03-23T04:44:47.436Z,88.21
2019-03-23T04:47:18.249Z,87.31
2019-03-23T04:49:48.519Z,87.85
2019-03-23T04:52:19.528Z,87.80
2019-03-23T04:54:51.022Z,87.81
2019-03-23T04:57:21.315Z,88.72
2019-03-23T04:59:51.775Z,87.26
2019-03-23T05:02:22.116Z,87.26
2019-03-23T05:04:52.487Z,87.11
2019-03-23T05:07:22.848Z,88.55
2019-03-23T05:09:53.148Z,88.55
2019-03-23T05:12:24.545Z,88.08
2019-03-23T05:14:55.468Z,88.08
2019-03-23T05:17:25.877Z,89.84
2019-03-23T05:19:57.004Z,89.84
2019-03-23T05:22:27.341Z,88.56
2019-03-23T05:24:57.599Z,88.38
2019-03-23T05:27:27.900Z,88.38
2019-03-23T05:29:58.279Z,88.89
2019-03-23T05:32:28.560Z,89.80
2019-03-23T05:34:58.822Z,89.16
2019-03-23T05:37:29.093Z,88.96
2019-03-23T05:39:59.563Z,88.96
2019-03-23T05:42:30.024Z,88.93
2019-03-23T05:45:00.411Z,89.54
2019-03-23T05:47:31.389Z,90.82
2019-03-23T05:50:01.855Z,90.82
2019-03-23T05:52:32.177Z,89.91
2019-03-23T05:55:02.660Z,89.28
2019-03-23T05:57:33.093Z,89.28
2019-03-23T06:00:03.726Z,90.28
2019-03-23T06:02:34.378Z,91.31
2019-03-23T06:05:05.150Z,91.31
2019-03-23T06:07:36.648Z,91.38
2019-03-23T06:10:07.259Z,90.04
2019-03-23T06:12:37.632Z,90.04
2019-03-23T06:15:08.184Z,90.43
2019-03-23T06:17:41.321Z,90.53
2019-03-23T06:20:12.045Z,90.40
2019-03-23T06:22:42.316Z,90.02
2019-03-23T06:25:12.789Z,90.18
2019-03-23T06:27:43.150Z,89.64
2019-03-23T06:30:13.714Z,89.64
2019-03-23T06:32:44.775Z,90.60
2019-03-23T06:35:15.310Z,90.60
2019-03-23T06:37:45.582Z,90.36
2019-03-23T06:40:16.103Z,89.40
2019-03-23T06:42:46.786Z,89.69
2019-03-23T06:45:17.251Z,89.69
2019-03-23T06:47:47.918Z,89.22
2019-03-23T06:50:18.342Z,91.10
2019-03-23T06:52:48.901Z,90.96
2019-03-23T06:55:19.260Z,90.31
2019-03-23T06:57:49.915Z,90.31
2019-03-23T07:00:21.124Z,89.96
2019-03-23T07:02:51.519Z,88.66
2019-03-23T07:05:22.147Z,88.49
2019-03-23T07:07:52.704Z,89.17
2019-03-23T07:10:23.171Z,89.17
2019-03-23T07:12:53.632Z,88.29
2019-03-23T07:15:24.012Z,88.20
2019-03-23T07:17:54.767Z,89.17
2019-03-23T07:20:25.316Z,88.58
2019-03-23T07:22:55.736Z,89.27
2019-03-23T07:25:26.170Z,88.21
2019-03-23T07:27:56.536Z,88.62
2019-03-23T07:30:27.238Z,88.62
2019-03-23T07:32:57.558Z,87.10
2019-03-23T07:35:27.865Z,86.85
2019-03-23T07:37:58.708Z,86.64
2019-03-23T07:40:29.133Z,86.72
2019-03-23T07:42:59.379Z,86.95
2019-03-23T07:45:30.257Z,85.37
2019-03-23T07:48:01.521Z,85.51
2019-03-23T07:50:32.313Z,86.21
2019-03-23T07:53:09.967Z,85.60
2019-03-23T07:55:40.102Z,86.35
2019-03-23T07:58:10.578Z,86.35
2019-03-23T08:00:41.142Z,86.43
2019-03-23T08:03:11.532Z,86.43
2019-03-23T08:05:42.026Z,86.30
2019-03-23T08:08:15.581Z,86.50
2019-03-23T08:10:46.777Z,86.50
2019-03-23T08:13:17.182Z,84.67
2019-03-23T08:15:47.674Z,84.72
2019-03-23T08:18:18.099Z,84.72
2019-03-23T08:20:49.778Z,85.49
2019-03-23T08:23:20.829Z,85.87
2019-03-23T08:25:51.329Z,85.87
2019-03-23T08:28:21.691Z,85.28
2019-03-23T08:30:52.162Z,84.41
2019-03-23T08:33:22.599Z,83.58
2019-03-23T08:35:53.106Z,83.31
2019-03-23T08:38:23.555Z,81.96
2019-03-23T08:40:57.045Z,82.63
2019-03-23T08:43:27.458Z,82.42
2019-03-23T08:45:57.975Z,82.42
2019-03-23T08:48:28.453Z,80.30
2019-03-23T08:50:58.996Z,80.30
2019-03-23T08:53:29.359Z,80.40
2019-03-23T08:55:59.650Z,81.43
2019-03-23T08:58:30.843Z,80.60
2019-03-23T09:01:02.151Z,80.60
2019-03-23T09:03:32.320Z,80.67
2019-03-23T09:06:02.636Z,79.77
2019-03-23T09:08:33.207Z,79.51
2019-03-23T09:11:03.913Z,79.68
2019-03-23T09:13:40.502Z,79.68
2019-03-23T09:16:06.684Z,78.81
2019-03-23T09:18:36.964Z,78.62
2019-03-23T09:21:07.596Z,77.90
2019-03-23T09:23:38.302Z,78.08
2019-03-23T09:26:13.626Z,78.08
2019-03-23T09:28:43.452Z,76.66
2019-03-23T09:31:13.805Z,76.66
2019-03-23T09:33:43.942Z,77.29
2019-03-23T09:36:14.558Z,75.90
2019-03-23T09:38:45.316Z,75.72
2019-03-23T09:41:15.587Z,75.85
2019-03-23T09:43:46.789Z,75.85
2019-03-23T09:46:17.100Z,75.91
2019-03-23T09:48:47.425Z,76.03
2019-03-23T09:51:20.812Z,75.32
2019-03-23T09:53:51.153Z,75.73
2019-03-23T09:56:21.250Z,74.52
2019-03-23T09:58:51.639Z,75.67
2019-03-23T10:01:22.157Z,74.61
2019-03-23T10:03:52.522Z,76.01
2019-03-23T10:06:22.753Z,75.23
2019-03-23T10:08:53.742Z,75.23
2019-03-23T10:11:24.058Z,75.00
2019-03-23T10:13:54.157Z,74.45
2019-03-23T10:16:24.563Z,74.45
2019-03-23T10:18:55.159Z,73.36
2019-03-23T10:21:25.275Z,72.42
2019-03-23T10:23:55.854Z,72.42
2019-03-23T10:26:29.493Z,74.55
2019-03-23T10:29:01.135Z,74.55
2019-03-23T10:31:31.996Z,73.33
2019-03-23T10:34:03.402Z,73.11
2019-03-23T10:36:33.577Z,72.81
2019-03-23T10:39:05.092Z,73.43
2019-03-23T10:41:35.514Z,73.20
2019-03-23T10:44:05.853Z,73.20
2019-03-23T10:46:36.402Z,72.50
2019-03-23T10:49:08.824Z,72.50
2019-03-23T10:51:44.709Z,71.55
2019-03-23T10:54:16.842Z,71.66
2019-03-23T10:56:47.159Z,71.60
2019-03-23T10:59:17.840Z,70.79
2019-03-23T11:01:48.159Z,71.16
2019-03-23T11:04:19.685Z,71.05
2019-03-23T11:06:49.943Z,71.05
2019-03-23T11:09:22.226Z,71.67
2019-03-23T11:11:53.290Z,71.43
2019-03-23T11:14:23.774Z,71.43
2019-03-23T11:16:55.018Z,70.70
2019-03-23T11:19:25.404Z,70.70
2019-03-23T11:21:55.526Z,69.72
2019-03-23T11:24:29.003Z,69.72
2019-03-23T11:26:59.791Z,69.35
2019-03-23T11:29:30.508Z,69.88
2019-03-23T11:32:00.563Z,69.03
2019-03-23T11:34:31.011Z,70.71
2019-03-23T11:37:01.487Z,70.65
2019-03-23T11:39:31.922Z,70.65
2019-03-23T11:42:03.747Z,70.50
2019-03-23T11:44:34.347Z,70.63
2019-03-23T11:47:05.137Z,70.26
2019-03-23T11:49:39.821Z,70.26
2019-03-23T11:52:12.203Z,70.53
2019-03-23T11:54:44.437Z,70.91
2019-03-23T11:57:15.223Z,71.79
2019-03-23T11:59:47.094Z,71.79
2019-03-23T12:02:17.453Z,71.57
2019-03-23T12:04:47.579Z,70.78
2019-03-23T12:07:18.344Z,69.51
2019-03-23T12:09:51.093Z,68.31
2019-03-23T12:12:21.529Z,68.31
2019-03-23T12:14:52.131Z,67.35
2019-03-23T12:17:26.968Z,65.21
2019-03-23T12:19:57.328Z,65.19
2019-03-23T12:22:27.927Z,65.19
2019-03-23T12:25:05.663Z,64.45
2019-03-23T12:27:38.344Z,65.05
2019-03-23T12:30:11.481Z,63.69
2019-03-23T12:32:42.484Z,63.87
2019-03-23T12:35:13.143Z,63.44
2019-03-23T12:37:44.141Z,63.44
2019-03-23T12:40:14.269Z,63.01
2019-03-23T12:42:45.721Z,64.27
2019-03-23T12:45:19.190Z,64.27
2019-03-23T12:47:49.982Z,63.32
2019-03-23T12:50:21.260Z,63.09
2019-03-23T12:52:52.683Z,62.48
2019-03-23T12:55:23.151Z,62.29
2019-03-23T12:57:53.673Z,62.33
2019-03-23T13:00:26.024Z,63.36
2019-03-23T13:02:56.684Z,62.44
2019-03-23T13:05:27.170Z,63.02
2019-03-23T13:07:58.340Z,62.57
2019-03-23T13:10:34.211Z,61.90
2019-03-23T13:13:17.703Z,61.21
2019-03-23T13:16:11.937Z,61.21
2019-03-23T13:18:43.103Z,60.78
2019-03-23T13:21:13.325Z,60.78
2019-03-23T13:23:46.691Z,62.02
2019-03-23T13:26:17.090Z,61.81
2019-03-23T13:28:47.922Z,61.81
2019-03-23T13:31:18.571Z,62.69
2019-03-23T13:33:48.961Z,62.69
2019-03-23T13:36:19.153Z,62.24
2019-03-23T13:38:49.937Z,62.65
2019-03-23T13:41:26.373Z,62.07
2019-03-23T13:43:56.480Z,62.76
2019-03-23T13:46:27.142Z,61.49
2019-03-23T13:48:57.500Z,60.07
2019-03-23T13:51:28.026Z,60.07
2019-03-23T13:53:59.196Z,59.73
2019-03-23T13:56:29.548Z,59.62
2019-03-23T13:58:59.662Z,58.69
2019-03-23T14:01:31.543Z,58.32
2019-03-23T14:04:01.637Z,58.32
2019-03-23T14:06:33.353Z,58.90
2019-03-23T14:09:05.692Z,58.63
2019-03-23T14:11:36.137Z,58.63
2019-03-23T14:14:09.359Z,58.80
2019-03-23T14:16:39.672Z,58.80
2019-03-23T14:19:11.709Z,59.04
2019-03-23T14:21:43.669Z,58.40
2019-03-23T14:24:13.799Z,58.02
2019-03-23T14:26:44.320Z,57.23
2019-03-23T14:29:14.387Z,59.58
2019-03-23T14:31:44.565Z,58.85
2019-03-23T14:34:15.174Z,58.85
2019-03-23T14:36:45.310Z,59.30
2019-03-23T14:39:15.693Z,59.18
2019-03-23T14:41:46.881Z,58.75
2019-03-23T14:44:19.276Z,58.75
2019-03-23T14:46:51.145Z,60.07
2019-03-23T14:49:22.411Z,60.07
2019-03-23T14:51:53.560Z,60.04
2019-03-23T14:54:24.205Z,60.07
2019-03-23T14:56:54.777Z,60.07
2019-03-23T14:59:29.660Z,60.12
2019-03-23T15:02:03.148Z,59.30
2019-03-23T15:04:34.105Z,59.30
2019-03-23T15:07:05.063Z,60.93
2019-03-23T15:09:35.778Z,61.85
2019-03-23T15:12:14.929Z,61.76
2019-03-23T15:14:44.496Z,61.95
2019-03-23T15:17:15.472Z,63.16
2019-03-23T15:19:46.140Z,63.16
2019-03-23T15:22:16.337Z,62.83
2019-03-23T15:24:47.151Z,63.55
2019-03-23T15:27:17.742Z,63.55
2019-03-23T15:29:48.284Z,63.77
2019-03-23T15:32:18.464Z,64.37
2019-03-23T15:34:48.529Z,64.50
2019-03-23T15:37:19.413Z,64.50
2019-03-23T15:39:50.156Z,64.45
2019-03-23T15:42:24.744Z,64.93
2019-03-23T15:44:53.076Z,65.04
2019-03-23T15:47:23.784Z,64.91
2019-03-23T15:49:54.150Z,64.91
2019-03-23T15:52:24.430Z,65.34
2019-03-23T15:54:55.343Z,65.96
2019-03-23T15:57:25.634Z,65.96
2019-03-23T15:59:55.813Z,65.71
2019-03-23T16:02:26.366Z,65.71
2019-03-23T16:04:58.761Z,65.86
2019-03-23T16:07:29.867Z,65.86
2019-03-23T16:10:00.410Z,66.48
2019-03-23T16:12:34.782Z,66.58
2019-03-23T16:15:05.305Z,66.48
2019-03-23T16:17:36.141Z,66.34
2019-03-23T16:20:09.576Z,66.44
2019-03-23T16:22:40.263Z,66.24
2019-03-23T16:25:10.648Z,66.12
2019-03-23T16:27:40.965Z,66.20
2019-03-23T16:30:11.928Z,67.06
2019-03-23T16:32:44.068Z,67.06
2019-03-23T16:35:14.687Z,67.90
2019-03-23T16:37:45.191Z,68.27
2019-03-23T16:40:17.016Z,68.27
2019-03-23T16:42:47.667Z,68.19
2019-03-23T16:45:18.153Z,68.61
2019-03-23T16:47:49.079Z,69.09
2019-03-23T16:50:19.599Z,69.55
2019-03-23T16:52:50.255Z,68.97
2019-03-23T16:55:23.127Z,69.98
2019-03-23T16:57:56.471Z,69.56
2019-03-23T17:00:35.666Z,69.56
2019-03-23T17:03:08.012Z,69.96
2019-03-23T17:05:39.087Z,70.32
2019-03-23T17:08:09.950Z,70.32
2019-03-23T17:10:40.204Z,70.17
2019-03-23T17:13:10.618Z,70.38
2019-03-23T17:15:41.490Z,70.25
2019-03-23T17:18:16.577Z,71.09
2019-03-23T17:20:48.267Z,71.82
2019-03-23T17:23:18.562Z,70.96
2019-03-23T17:25:48.951Z,70.92
2019-03-23T17:28:19.129Z,72.17
2019-03-23T17:30:52.601Z,71.95
2019-03-23T17:33:24.086Z,71.41
2019-03-23T17:35:56.710Z,71.69
2019-03-23T17:38:26.954Z,71.69
2019-03-23T17:40:58.180Z,71.88
2019-03-23T17:43:29.171Z,72.06
2019-03-23T17:45:59.423Z,72.13
2019-03-23T17:48:30.030Z,72.45
2019-03-23T17:51:00.086Z,72.96
2019-03-23T17:53:31.191Z,73.04
2019-03-23T17:56:01.900Z,73.16
2019-03-23T17:58:32.388Z,73.16
2019-03-23T18:01:05.618Z,73.47
2019-03-23T18:03:37.798Z,73.29
2019-03-23T18:06:08.144Z,73.33
2019-03-23T18:08:38.187Z,73.61
2019-03-23T18:11:09.105Z,74.27
2019-03-23T18:13:39.316Z,74.34
2019-03-23T18:16:20.022Z,74.34
2019-03-23T18:18:53.267Z,74.89
2019-03-23T18:21:24.111Z,74.27
2019-03-23T18:23:54.496Z,74.54
2019-03-23T18:26:25.440Z,74.40
2019-03-23T18:28:58.032Z,74.70
2019-03-23T18:31:28.840Z,74.70
2019-03-23T18:33:59.152Z,74.48
2019-03-23T18:36:29.948Z,75.13
2019-03-23T18:39:00.356Z,75.07
2019-03-23T18:41:30.767Z,75.20
2019-03-23T18:44:15.462Z,75.54
2019-03-23T18:46:37.316Z,75.61
2019-03-23T18:49:07.655Z,75.61
2019-03-23T18:51:38.431Z,75.67
2019-03-23T18:54:11.045Z,75.51
2019-03-23T18:56:41.740Z,75.78
2019-03-23T18:59:12.144Z,76.01
2019-03-23T19:01:42.312Z,76.01
2019-03-23T19:04:13.228Z,75.93
2019-03-23T19:06:43.446Z,75.97
2019-03-23T19:09:16.048Z,76.55
2019-03-23T19:11:47.023Z,76.55
2019-03-23T19:14:17.767Z,76.89
2019-03-23T19:16:50.109Z,77.04
2019-03-23T19:19:21.081Z,77.21
2019-03-23T19:21:52.087Z,76.97
2019-03-23T19:24:23.043Z,76.87
2019-03-23T19:26:55.585Z,77.98
2019-03-23T19:29:28.584Z,77.79
2019-03-23T19:32:01.893Z,78.37
2019-03-23T19:34:32.765Z,78.08
2019-03-23T19:37:06.355Z,77.78
2019-03-23T19:39:37.505Z,78.02
2019-03-23T19:42:08.026Z,78.25
2019-03-23T19:44:40.141Z,79.16
2019-03-23T19:47:10.564Z,79.16
2019-03-23T19:49:41.078Z,78.71
2019-03-23T19:52:12.192Z,78.65
2019-03-23T19:54:45.066Z,79.37
2019-03-23T19:57:15.339Z,79.37
2019-03-23T19:59:47.225Z,79.90
2019-03-23T20:02:17.357Z,79.62
2019-03-23T20:04:48.148Z,79.62
2019-03-23T20:07:19.383Z,79.89
2019-03-23T20:09:50.158Z,79.89
2019-03-23T20:12:21.738Z,79.80
2019-03-23T20:14:52.185Z,79.39
2019-03-23T20:17:22.696Z,81.24
2019-03-23T20:19:53.044Z,81.24
2019-03-23T20:22:23.543Z,81.24
2019-03-23T20:24:57.302Z,81.00
2019-03-23T20:27:27.670Z,81.00
2019-03-23T20:29:58.121Z,80.71
2019-03-23T20:32:29.050Z,80.54
2019-03-23T20:34:59.504Z,80.65
2019-03-23T20:37:31.677Z,80.65
2019-03-23T20:40:02.066Z,80.83
2019-03-23T20:42:32.932Z,80.44
2019-03-23T20:45:09.010Z,80.73
2019-03-23T20:47:40.495Z,80.73
2019-03-23T20:50:12.351Z,81.16
2019-03-23T20:52:43.032Z,81.76
2019-03-23T20:55:33.275Z,81.76
2019-03-23T20:58:03.471Z,81.92
2019-03-23T21:00:34.419Z,81.92
2019-03-23T21:03:05.012Z,81.90
2019-03-23T21:05:35.276Z,82.51
2019-03-23T21:08:05.516Z,81.82
2019-03-23T21:10:36.240Z,82.09
2019-03-23T21:13:06.968Z,82.09
2019-03-23T21:15:37.955Z,81.66
2019-03-23T21:18:08.705Z,81.80
2019-03-23T21:20:39.678Z,81.98
2019-03-23T21:23:10.077Z,81.58
2019-03-23T21:25:43.713Z,82.21
2019-03-23T21:28:15.313Z,82.21
2019-03-23T21:30:46.692Z,82.96
2019-03-23T21:33:20.767Z,82.68
2019-03-23T21:35:53.622Z,82.68
2019-03-23T21:38:24.136Z,81.51
2019-03-23T21:40:55.151Z,82.09
2019-03-23T21:43:27.606Z,82.58
2019-03-23T21:45:58.432Z,82.33
2019-03-23T21:48:32.392Z,82.81
2019-03-23T21:51:05.165Z,84.00
2019-03-23T21:53:35.674Z,84.00
2019-03-23T21:56:06.528Z,82.39
2019-03-23T21:58:37.367Z,82.27
2019-03-23T22:01:08.373Z,82.97
2019-03-23T22:03:38.984Z,83.41
2019-03-23T22:06:09.623Z,83.56
2019-03-23T22:08:40.168Z,83.98
2019-03-23T22:11:10.721Z,83.66
2019-03-23T22:13:41.274Z,83.70
2019-03-23T22:16:12.078Z,83.41
2019-03-23T22:18:44.399Z,83.41
2019-03-23T22:21:14.845Z,83.88
2019-03-23T22:23:45.750Z,83.98
2019-03-23T22:26:18.198Z,83.98
2019-03-23T22:28:49.037Z,84.25
2019-03-23T22:31:19.738Z,84.43
2019-03-23T22:33:50.605Z,84.43
2019-03-23T22:36:21.530Z,85.44
2019-03-23T22:38:51.848Z,84.92
2019-03-23T22:41:23.460Z,84.89
2019-03-23T22:43:53.863Z,85.15
2019-03-23T22:46:24.069Z,85.83
2019-03-23T22:48:54.368Z,86.93
2019-03-23T22:51:25.113Z,86.93
2019-03-23T22:53:55.787Z,86.44
2019-03-23T22:56:26.524Z,86.85
2019-03-23T22:58:57.361Z,87.17
2019-03-23T23:01:27.827Z,87.65
2019-03-23T23:03:58.382Z,87.11
2019-03-23T23:06:28.903Z,87.34
2019-03-23T23:08:59.326Z,87.34
2019-03-23T23:11:29.712Z,87.74
2019-03-23T23:14:00.066Z,87.76
2019-03-23T23:16:31.101Z,87.78
2019-03-23T23:19:01.667Z,87.78
2019-03-23T23:21:32.365Z,88.17
2019-03-23T23:24:03.173Z,87.90
2019-03-23T23:26:33.711Z,88.10
2019-03-23T23:29:04.116Z,88.10
2019-03-23T23:31:34.653Z,87.89
2019-03-23T23:34:05.118Z,88.21
2019-03-23T23:36:35.518Z,88.33
2019-03-23T23:39:07.665Z,88.10
2019-03-23T23:41:38.141Z,88.10
2019-03-23T23:44:08.662Z,88.24
2019-03-23T23:46:39.536Z,88.12
2019-03-23T23:49:10.083Z,87.95
2019-03-23T23:51:49.839Z,88.19
2019-03-23T23:54:13.095Z,88.19
2019-03-23T23:56:43.688Z,87.08
2019-03-23T23:59:13.968Z,87.90
